sensor_id;sensor_type;location;lat;lon;timestamp;P1;durP1;ratioP1;P2;durP2;ratioP2
58017;SDS011;43810;50.860;19.226;2023-07-09T00:01:39;23.10;;;12.82;;
58017;SDS011;43810;50.860;19.226;2023-07-09T00:04:05;21.58;;;12.02;;
58017;SDS011;43810;50.860;19.226;2023-07-09T00:06:32;25.58;;;13.38;;
58017;SDS011;43810;50.860;19.226;2023-07-09T00:08:58;20.60;;;11.88;;
58017;SDS011;43810;50.860;19.226;2023-07-09T00:11:24;26.55;;;14.27;;
58017;SDS011;43810;50.860;19.226;2023-07-09T00:13:50;50.03;;;22.50;;
58017;SDS011;43810;50.860;19.226;2023-07-09T00:16:16;53.15;;;21.58;;
58017;SDS011;43810;50.860;19.226;2023-07-09T00:18:47;47.95;;;20.58;;
58017;SDS011;43810;50.860;19.226;2023-07-09T00:21:15;44.55;;;19.90;;
58017;SDS011;43810;50.860;19.226;2023-07-09T00:23:45;61.03;;;22.25;;
58017;SDS011;43810;50.860;19.226;2023-07-09T00:26:14;53.85;;;22.55;;
58017;SDS011;43810;50.860;19.226;2023-07-09T00:28:41;57.22;;;23.42;;
58017;SDS011;43810;50.860;19.226;2023-07-09T00:31:11;62.30;;;22.30;;
58017;SDS011;43810;50.860;19.226;2023-07-09T00:33:42;55.70;;;22.65;;
58017;SDS011;43810;50.860;19.226;2023-07-09T00:36:15;56.53;;;21.98;;
58017;SDS011;43810;50.860;19.226;2023-07-09T00:39:00;47.35;;;19.42;;
58017;SDS011;43810;50.860;19.226;2023-07-09T00:41:36;51.83;;;20.60;;
58017;SDS011;43810;50.860;19.226;2023-07-09T00:49:13;50.60;;;20.73;;
58017;SDS011;43810;50.860;19.226;2023-07-09T00:51:43;44.83;;;19.98;;
58017;SDS011;43810;50.860;19.226;2023-07-09T00:54:13;49.88;;;22.42;;
58017;SDS011;43810;50.860;19.226;2023-07-09T00:57:04;48.83;;;20.73;;
58017;SDS011;43810;50.860;19.226;2023-07-09T00:59:36;54.70;;;22.50;;
58017;SDS011;43810;50.860;19.226;2023-07-09T01:02:04;46.03;;;20.63;;
58017;SDS011;43810;50.860;19.226;2023-07-09T01:04:32;44.47;;;19.60;;
58017;SDS011;43810;50.860;19.226;2023-07-09T01:06:59;45.65;;;19.02;;
58017;SDS011;43810;50.860;19.226;2023-07-09T01:09:25;45.50;;;17.92;;
58017;SDS011;43810;50.860;19.226;2023-07-09T01:11:51;41.60;;;18.90;;
58017;SDS011;43810;50.860;19.226;2023-07-09T01:14:19;40.45;;;19.80;;
58017;SDS011;43810;50.860;19.226;2023-07-09T01:16:50;39.67;;;19.30;;
58017;SDS011;43810;50.860;19.226;2023-07-09T01:19:23;39.30;;;18.58;;
58017;SDS011;43810;50.860;19.226;2023-07-09T01:21:57;39.72;;;18.45;;
58017;SDS011;43810;50.860;19.226;2023-07-09T01:27:13;31.10;;;16.02;;
58017;SDS011;43810;50.860;19.226;2023-07-09T01:29:39;28.23;;;14.93;;
58017;SDS011;43810;50.860;19.226;2023-07-09T01:32:06;34.65;;;15.52;;
58017;SDS011;43810;50.860;19.226;2023-07-09T01:34:33;26.75;;;14.65;;
58017;SDS011;43810;50.860;19.226;2023-07-09T01:36:58;27.95;;;14.30;;
58017;SDS011;43810;50.860;19.226;2023-07-09T01:39:28;29.98;;;14.23;;
58017;SDS011;43810;50.860;19.226;2023-07-09T01:41:54;25.67;;;14.18;;
58017;SDS011;43810;50.860;19.226;2023-07-09T01:44:20;25.13;;;14.02;;
58017;SDS011;43810;50.860;19.226;2023-07-09T01:46:46;25.67;;;12.70;;
58017;SDS011;43810;50.860;19.226;2023-07-09T01:49:12;28.08;;;13.38;;
58017;SDS011;43810;50.860;19.226;2023-07-09T01:51:40;24.10;;;13.25;;
58017;SDS011;43810;50.860;19.226;2023-07-09T01:54:06;24.70;;;12.68;;
58017;SDS011;43810;50.860;19.226;2023-07-09T01:56:31;19.40;;;11.52;;
58017;SDS011;43810;50.860;19.226;2023-07-09T01:58:57;21.02;;;12.48;;
58017;SDS011;43810;50.860;19.226;2023-07-09T02:01:27;20.13;;;12.13;;
58017;SDS011;43810;50.860;19.226;2023-07-09T02:03:54;22.98;;;11.80;;
58017;SDS011;43810;50.860;19.226;2023-07-09T02:06:20;21.55;;;11.52;;
58017;SDS011;43810;50.860;19.226;2023-07-09T02:08:50;23.98;;;11.90;;
58017;SDS011;43810;50.860;19.226;2023-07-09T02:11:15;17.67;;;11.52;;
58017;SDS011;43810;50.860;19.226;2023-07-09T02:13:41;16.70;;;10.52;;
58017;SDS011;43810;50.860;19.226;2023-07-09T02:16:07;22.95;;;11.18;;
58017;SDS011;43810;50.860;19.226;2023-07-09T02:18:33;22.80;;;11.10;;
58017;SDS011;43810;50.860;19.226;2023-07-09T02:20:59;17.17;;;10.77;;
58017;SDS011;43810;50.860;19.226;2023-07-09T02:23:25;18.88;;;10.98;;
58017;SDS011;43810;50.860;19.226;2023-07-09T02:25:52;19.67;;;11.88;;
58017;SDS011;43810;50.860;19.226;2023-07-09T02:28:19;19.08;;;12.00;;
58017;SDS011;43810;50.860;19.226;2023-07-09T02:30:47;26.73;;;13.90;;
58017;SDS011;43810;50.860;19.226;2023-07-09T02:33:13;19.85;;;12.02;;
58017;SDS011;43810;50.860;19.226;2023-07-09T02:35:39;21.58;;;13.00;;
58017;SDS011;43810;50.860;19.226;2023-07-09T02:38:05;25.33;;;12.98;;
58017;SDS011;43810;50.860;19.226;2023-07-09T02:40:31;24.08;;;13.32;;
58017;SDS011;43810;50.860;19.226;2023-07-09T02:42:57;30.42;;;14.13;;
58017;SDS011;43810;50.860;19.226;2023-07-09T02:45:22;30.25;;;15.45;;
58017;SDS011;43810;50.860;19.226;2023-07-09T02:47:48;42.25;;;18.58;;
58017;SDS011;43810;50.860;19.226;2023-07-09T02:50:14;34.33;;;17.58;;
58017;SDS011;43810;50.860;19.226;2023-07-09T02:52:40;37.88;;;17.90;;
58017;SDS011;43810;50.860;19.226;2023-07-09T02:55:07;37.20;;;18.27;;
58017;SDS011;43810;50.860;19.226;2023-07-09T02:57:33;41.08;;;19.30;;
58017;SDS011;43810;50.860;19.226;2023-07-09T02:59:59;35.45;;;17.30;;
58017;SDS011;43810;50.860;19.226;2023-07-09T03:02:25;38.13;;;18.30;;
58017;SDS011;43810;50.860;19.226;2023-07-09T03:04:51;44.88;;;18.63;;
58017;SDS011;43810;50.860;19.226;2023-07-09T03:07:17;40.63;;;17.10;;
58017;SDS011;43810;50.860;19.226;2023-07-09T03:09:43;37.55;;;16.17;;
58017;SDS011;43810;50.860;19.226;2023-07-09T03:12:09;35.90;;;15.35;;
58017;SDS011;43810;50.860;19.226;2023-07-09T03:14:35;37.70;;;15.35;;
58017;SDS011;43810;50.860;19.226;2023-07-09T03:17:01;35.45;;;15.98;;
58017;SDS011;43810;50.860;19.226;2023-07-09T03:19:28;35.63;;;16.65;;
58017;SDS011;43810;50.860;19.226;2023-07-09T03:21:54;37.22;;;15.88;;
58017;SDS011;43810;50.860;19.226;2023-07-09T03:24:19;39.33;;;16.70;;
58017;SDS011;43810;50.860;19.226;2023-07-09T03:26:45;54.88;;;21.70;;
58017;SDS011;43810;50.860;19.226;2023-07-09T03:29:12;70.53;;;25.85;;
58017;SDS011;43810;50.860;19.226;2023-07-09T03:31:38;83.82;;;30.98;;
58017;SDS011;43810;50.860;19.226;2023-07-09T03:34:04;104.53;;;36.42;;
58017;SDS011;43810;50.860;19.226;2023-07-09T03:36:30;118.07;;;41.97;;
58017;SDS011;43810;50.860;19.226;2023-07-09T03:38:56;149.38;;;45.92;;
58017;SDS011;43810;50.860;19.226;2023-07-09T03:41:22;135.40;;;44.47;;
58017;SDS011;43810;50.860;19.226;2023-07-09T03:43:48;142.68;;;43.58;;
58017;SDS011;43810;50.860;19.226;2023-07-09T03:46:16;111.78;;;37.00;;
58017;SDS011;43810;50.860;19.226;2023-07-09T03:48:41;94.25;;;32.08;;
58017;SDS011;43810;50.860;19.226;2023-07-09T03:51:07;75.10;;;27.50;;
58017;SDS011;43810;50.860;19.226;2023-07-09T03:53:33;81.82;;;30.67;;
58017;SDS011;43810;50.860;19.226;2023-07-09T03:55:59;81.40;;;28.40;;
58017;SDS011;43810;50.860;19.226;2023-07-09T03:58:25;76.50;;;28.20;;
58017;SDS011;43810;50.860;19.226;2023-07-09T04:00:52;58.40;;;24.20;;
58017;SDS011;43810;50.860;19.226;2023-07-09T04:03:19;57.00;;;22.60;;
58017;SDS011;43810;50.860;19.226;2023-07-09T04:05:46;54.45;;;22.50;;
58017;SDS011;43810;50.860;19.226;2023-07-09T04:08:12;50.75;;;19.17;;
58017;SDS011;43810;50.860;19.226;2023-07-09T04:10:38;42.78;;;18.10;;
58017;SDS011;43810;50.860;19.226;2023-07-09T04:13:04;42.45;;;18.50;;
58017;SDS011;43810;50.860;19.226;2023-07-09T04:15:30;45.33;;;18.55;;
58017;SDS011;43810;50.860;19.226;2023-07-09T04:17:55;45.30;;;19.00;;
58017;SDS011;43810;50.860;19.226;2023-07-09T04:20:21;39.00;;;17.30;;
58017;SDS011;43810;50.860;19.226;2023-07-09T04:22:47;38.38;;;16.88;;
58017;SDS011;43810;50.860;19.226;2023-07-09T04:25:13;32.58;;;14.85;;
58017;SDS011;43810;50.860;19.226;2023-07-09T04:27:39;38.17;;;16.65;;
58017;SDS011;43810;50.860;19.226;2023-07-09T04:30:06;32.30;;;14.38;;
58017;SDS011;43810;50.860;19.226;2023-07-09T04:32:38;38.13;;;14.88;;
58017;SDS011;43810;50.860;19.226;2023-07-09T04:35:04;31.17;;;14.00;;
58017;SDS011;43810;50.860;19.226;2023-07-09T04:37:32;29.65;;;14.45;;
58017;SDS011;43810;50.860;19.226;2023-07-09T04:39:59;26.27;;;12.25;;
58017;SDS011;43810;50.860;19.226;2023-07-09T04:42:25;29.73;;;13.00;;
58017;SDS011;43810;50.860;19.226;2023-07-09T04:44:50;20.75;;;10.85;;
58017;SDS011;43810;50.860;19.226;2023-07-09T04:47:16;20.50;;;10.77;;
58017;SDS011;43810;50.860;19.226;2023-07-09T04:49:42;21.08;;;11.15;;
58017;SDS011;43810;50.860;19.226;2023-07-09T04:52:08;21.38;;;10.30;;
58017;SDS011;43810;50.860;19.226;2023-07-09T04:54:37;16.08;;;10.20;;
58017;SDS011;43810;50.860;19.226;2023-07-09T04:57:06;17.73;;;9.73;;
58017;SDS011;43810;50.860;19.226;2023-07-09T04:59:32;15.93;;;9.02;;
58017;SDS011;43810;50.860;19.226;2023-07-09T05:01:58;19.02;;;9.20;;
58017;SDS011;43810;50.860;19.226;2023-07-09T05:04:24;14.88;;;9.45;;
58017;SDS011;43810;50.860;19.226;2023-07-09T05:06:50;14.18;;;8.45;;
58017;SDS011;43810;50.860;19.226;2023-07-09T05:09:16;14.55;;;9.07;;
58017;SDS011;43810;50.860;19.226;2023-07-09T05:11:41;14.15;;;8.00;;
58017;SDS011;43810;50.860;19.226;2023-07-09T05:14:07;12.93;;;8.43;;
58017;SDS011;43810;50.860;19.226;2023-07-09T05:16:33;12.93;;;8.48;;
58017;SDS011;43810;50.860;19.226;2023-07-09T05:18:59;12.57;;;8.68;;
58017;SDS011;43810;50.860;19.226;2023-07-09T05:21:25;11.63;;;8.57;;
58017;SDS011;43810;50.860;19.226;2023-07-09T05:23:51;13.35;;;8.30;;
58017;SDS011;43810;50.860;19.226;2023-07-09T05:26:16;11.25;;;7.93;;
58017;SDS011;43810;50.860;19.226;2023-07-09T05:28:42;17.60;;;8.02;;
58017;SDS011;43810;50.860;19.226;2023-07-09T05:31:08;11.75;;;7.80;;
58017;SDS011;43810;50.860;19.226;2023-07-09T05:33:34;11.80;;;7.80;;
58017;SDS011;43810;50.860;19.226;2023-07-09T05:36:00;9.77;;;7.45;;
58017;SDS011;43810;50.860;19.226;2023-07-09T05:38:27;11.38;;;7.95;;
58017;SDS011;43810;50.860;19.226;2023-07-09T05:41:00;11.63;;;7.15;;
58017;SDS011;43810;50.860;19.226;2023-07-09T05:43:28;11.95;;;7.85;;
58017;SDS011;43810;50.860;19.226;2023-07-09T05:45:55;9.57;;;7.35;;
58017;SDS011;43810;50.860;19.226;2023-07-09T05:48:21;9.23;;;7.13;;
58017;SDS011;43810;50.860;19.226;2023-07-09T05:50:47;11.30;;;7.85;;
58017;SDS011;43810;50.860;19.226;2023-07-09T05:53:14;11.05;;;8.27;;
58017;SDS011;43810;50.860;19.226;2023-07-09T05:55:39;10.23;;;8.23;;
58017;SDS011;43810;50.860;19.226;2023-07-09T05:58:06;12.88;;;8.07;;
58017;SDS011;43810;50.860;19.226;2023-07-09T06:00:31;11.88;;;7.20;;
58017;SDS011;43810;50.860;19.226;2023-07-09T06:02:57;10.55;;;7.28;;
58017;SDS011;43810;50.860;19.226;2023-07-09T06:05:23;9.55;;;7.45;;
58017;SDS011;43810;50.860;19.226;2023-07-09T06:07:48;9.63;;;7.15;;
58017;SDS011;43810;50.860;19.226;2023-07-09T06:10:15;8.00;;;6.68;;
58017;SDS011;43810;50.860;19.226;2023-07-09T06:12:41;9.55;;;6.40;;
58017;SDS011;43810;50.860;19.226;2023-07-09T06:15:07;7.22;;;6.40;;
58017;SDS011;43810;50.860;19.226;2023-07-09T06:17:33;9.45;;;6.13;;
58017;SDS011;43810;50.860;19.226;2023-07-09T06:19:59;6.07;;;5.22;;
58017;SDS011;43810;50.860;19.226;2023-07-09T06:22:25;6.63;;;5.38;;
58017;SDS011;43810;50.860;19.226;2023-07-09T06:24:51;6.65;;;5.60;;
58017;SDS011;43810;50.860;19.226;2023-07-09T06:27:19;11.07;;;5.32;;
58017;SDS011;43810;50.860;19.226;2023-07-09T06:29:45;7.93;;;4.82;;
58017;SDS011;43810;50.860;19.226;2023-07-09T06:32:10;6.45;;;4.68;;
58017;SDS011;43810;50.860;19.226;2023-07-09T06:34:36;7.80;;;4.95;;
58017;SDS011;43810;50.860;19.226;2023-07-09T06:37:02;5.60;;;4.88;;
58017;SDS011;43810;50.860;19.226;2023-07-09T06:39:30;6.05;;;4.88;;
58017;SDS011;43810;50.860;19.226;2023-07-09T06:41:56;6.35;;;4.90;;
58017;SDS011;43810;50.860;19.226;2023-07-09T06:44:22;13.57;;;5.55;;
58017;SDS011;43810;50.860;19.226;2023-07-09T06:46:47;7.57;;;4.68;;
58017;SDS011;43810;50.860;19.226;2023-07-09T06:49:14;6.13;;;5.15;;
58017;SDS011;43810;50.860;19.226;2023-07-09T06:51:39;6.25;;;4.80;;
58017;SDS011;43810;50.860;19.226;2023-07-09T06:54:05;6.10;;;5.00;;
58017;SDS011;43810;50.860;19.226;2023-07-09T06:56:31;15.38;;;5.45;;
58017;SDS011;43810;50.860;19.226;2023-07-09T06:58:57;6.18;;;4.80;;
58017;SDS011;43810;50.860;19.226;2023-07-09T07:01:23;9.82;;;4.97;;
58017;SDS011;43810;50.860;19.226;2023-07-09T07:03:49;5.47;;;4.43;;
58017;SDS011;43810;50.860;19.226;2023-07-09T07:06:14;7.75;;;4.82;;
58017;SDS011;43810;50.860;19.226;2023-07-09T07:08:41;7.78;;;5.07;;
58017;SDS011;43810;50.860;19.226;2023-07-09T07:11:13;5.75;;;5.00;;
58017;SDS011;43810;50.860;19.226;2023-07-09T07:13:39;8.25;;;5.15;;
58017;SDS011;43810;50.860;19.226;2023-07-09T07:16:06;6.60;;;4.68;;
58017;SDS011;43810;50.860;19.226;2023-07-09T07:18:36;5.20;;;4.35;;
58017;SDS011;43810;50.860;19.226;2023-07-09T07:21:02;5.95;;;4.38;;
58017;SDS011;43810;50.860;19.226;2023-07-09T07:23:29;6.20;;;5.20;;
58017;SDS011;43810;50.860;19.226;2023-07-09T07:25:55;6.47;;;5.07;;
58017;SDS011;43810;50.860;19.226;2023-07-09T07:28:21;7.22;;;4.18;;
58017;SDS011;43810;50.860;19.226;2023-07-09T07:30:57;6.00;;;5.13;;
58017;SDS011;43810;50.860;19.226;2023-07-09T07:33:26;5.97;;;4.53;;
58017;SDS011;43810;50.860;19.226;2023-07-09T07:35:52;5.63;;;4.13;;
58017;SDS011;43810;50.860;19.226;2023-07-09T07:38:19;6.57;;;4.40;;
58017;SDS011;43810;50.860;19.226;2023-07-09T07:40:44;6.47;;;4.32;;
58017;SDS011;43810;50.860;19.226;2023-07-09T07:43:10;7.57;;;4.50;;
58017;SDS011;43810;50.860;19.226;2023-07-09T07:45:39;5.97;;;4.07;;
58017;SDS011;43810;50.860;19.226;2023-07-09T07:48:06;8.23;;;5.25;;
58017;SDS011;43810;50.860;19.226;2023-07-09T07:50:32;6.95;;;4.78;;
58017;SDS011;43810;50.860;19.226;2023-07-09T07:52:58;7.10;;;5.25;;
58017;SDS011;43810;50.860;19.226;2023-07-09T07:55:24;6.97;;;4.60;;
58017;SDS011;43810;50.860;19.226;2023-07-09T07:57:50;7.72;;;4.90;;
58017;SDS011;43810;50.860;19.226;2023-07-09T08:00:16;7.50;;;4.78;;
58017;SDS011;43810;50.860;19.226;2023-07-09T08:02:42;8.25;;;4.95;;
58017;SDS011;43810;50.860;19.226;2023-07-09T08:05:08;5.47;;;4.47;;
58017;SDS011;43810;50.860;19.226;2023-07-09T08:07:34;6.13;;;4.63;;
58017;SDS011;43810;50.860;19.226;2023-07-09T08:10:00;14.25;;;4.60;;
58017;SDS011;43810;50.860;19.226;2023-07-09T08:12:26;4.22;;;3.63;;
58017;SDS011;43810;50.860;19.226;2023-07-09T08:14:52;5.03;;;4.30;;
58017;SDS011;43810;50.860;19.226;2023-07-09T08:17:18;6.32;;;4.78;;
58017;SDS011;43810;50.860;19.226;2023-07-09T08:19:47;4.90;;;4.50;;
58017;SDS011;43810;50.860;19.226;2023-07-09T08:22:20;5.05;;;3.90;;
58017;SDS011;43810;50.860;19.226;2023-07-09T08:24:47;5.05;;;4.55;;
58017;SDS011;43810;50.860;19.226;2023-07-09T08:27:14;6.47;;;4.32;;
58017;SDS011;43810;50.860;19.226;2023-07-09T08:29:41;7.88;;;5.00;;
58017;SDS011;43810;50.860;19.226;2023-07-09T08:32:08;5.60;;;4.20;;
58017;SDS011;43810;50.860;19.226;2023-07-09T08:34:35;4.47;;;4.05;;
58017;SDS011;43810;50.860;19.226;2023-07-09T08:37:01;7.90;;;4.43;;
58017;SDS011;43810;50.860;19.226;2023-07-09T08:39:27;7.57;;;4.25;;
58017;SDS011;43810;50.860;19.226;2023-07-09T08:42:07;6.20;;;4.38;;
58017;SDS011;43810;50.860;19.226;2023-07-09T08:50:02;4.57;;;3.88;;
58017;SDS011;43810;50.860;19.226;2023-07-09T08:52:35;4.28;;;3.67;;
58017;SDS011;43810;50.860;19.226;2023-07-09T08:55:10;4.30;;;3.50;;
58017;SDS011;43810;50.860;19.226;2023-07-09T08:57:40;5.63;;;3.63;;
58017;SDS011;43810;50.860;19.226;2023-07-09T09:00:13;4.13;;;3.50;;
58017;SDS011;43810;50.860;19.226;2023-07-09T09:02:50;6.22;;;4.40;;
58017;SDS011;43810;50.860;19.226;2023-07-09T09:05:21;4.13;;;3.70;;
58017;SDS011;43810;50.860;19.226;2023-07-09T09:07:50;5.10;;;3.97;;
58017;SDS011;43810;50.860;19.226;2023-07-09T09:10:34;9.68;;;3.88;;
58017;SDS011;43810;50.860;19.226;2023-07-09T09:13:16;9.48;;;3.90;;
58017;SDS011;43810;50.860;19.226;2023-07-09T09:15:45;3.63;;;3.33;;
58017;SDS011;43810;50.860;19.226;2023-07-09T09:18:20;6.47;;;3.63;;
58017;SDS011;43810;50.860;19.226;2023-07-09T09:20:51;5.53;;;3.88;;
58017;SDS011;43810;50.860;19.226;2023-07-09T09:23:46;4.70;;;3.38;;
58017;SDS011;43810;50.860;19.226;2023-07-09T09:26:26;4.97;;;4.22;;
58017;SDS011;43810;50.860;19.226;2023-07-09T09:28:58;4.50;;;3.53;;
58017;SDS011;43810;50.860;19.226;2023-07-09T09:31:27;5.10;;;3.55;;
58017;SDS011;43810;50.860;19.226;2023-07-09T09:33:55;6.57;;;3.58;;
58017;SDS011;43810;50.860;19.226;2023-07-09T09:36:23;3.63;;;3.30;;
58017;SDS011;43810;50.860;19.226;2023-07-09T09:38:53;5.80;;;3.70;;
58017;SDS011;43810;50.860;19.226;2023-07-09T09:43:47;8.65;;;3.75;;
58017;SDS011;43810;50.860;19.226;2023-07-09T09:46:24;5.75;;;3.97;;
58017;SDS011;43810;50.860;19.226;2023-07-09T09:48:56;3.95;;;2.97;;
58017;SDS011;43810;50.860;19.226;2023-07-09T09:51:26;4.50;;;3.28;;
58017;SDS011;43810;50.860;19.226;2023-07-09T09:53:55;5.30;;;3.40;;
58017;SDS011;43810;50.860;19.226;2023-07-09T09:56:30;4.03;;;2.92;;
58017;SDS011;43810;50.860;19.226;2023-07-09T09:59:02;4.72;;;3.05;;
58017;SDS011;43810;50.860;19.226;2023-07-09T10:01:31;10.85;;;3.35;;
58017;SDS011;43810;50.860;19.226;2023-07-09T10:04:03;8.40;;;3.50;;
58017;SDS011;43810;50.860;19.226;2023-07-09T10:06:33;4.35;;;3.13;;
58017;SDS011;43810;50.860;19.226;2023-07-09T10:11:46;4.32;;;3.13;;
58017;SDS011;43810;50.860;19.226;2023-07-09T10:16:51;4.07;;;3.00;;
58017;SDS011;43810;50.860;19.226;2023-07-09T10:19:33;6.90;;;3.28;;
58017;SDS011;43810;50.860;19.226;2023-07-09T10:22:05;3.90;;;3.30;;
58017;SDS011;43810;50.860;19.226;2023-07-09T10:25:21;3.45;;;3.00;;
58017;SDS011;43810;50.860;19.226;2023-07-09T10:33:23;5.05;;;3.00;;
58017;SDS011;43810;50.860;19.226;2023-07-09T10:36:06;4.03;;;3.20;;
58017;SDS011;43810;50.860;19.226;2023-07-09T10:41:19;3.47;;;3.17;;
58017;SDS011;43810;50.860;19.226;2023-07-09T10:43:54;4.00;;;3.00;;
58017;SDS011;43810;50.860;19.226;2023-07-09T10:46:25;3.53;;;3.22;;
58017;SDS011;43810;50.860;19.226;2023-07-09T10:48:56;4.32;;;3.17;;
58017;SDS011;43810;50.860;19.226;2023-07-09T10:54:28;3.53;;;3.03;;
58017;SDS011;43810;50.860;19.226;2023-07-09T10:57:09;3.50;;;3.20;;
58017;SDS011;43810;50.860;19.226;2023-07-09T10:59:43;3.45;;;2.75;;
58017;SDS011;43810;50.860;19.226;2023-07-09T11:02:33;4.55;;;3.47;;
58017;SDS011;43810;50.860;19.226;2023-07-09T11:05:02;3.33;;;3.03;;
58017;SDS011;43810;50.860;19.226;2023-07-09T11:07:32;3.60;;;2.95;;
58017;SDS011;43810;50.860;19.226;2023-07-09T11:10:25;5.00;;;3.30;;
58017;SDS011;43810;50.860;19.226;2023-07-09T11:12:58;7.85;;;3.10;;
58017;SDS011;43810;50.860;19.226;2023-07-09T11:15:32;4.35;;;3.40;;
58017;SDS011;43810;50.860;19.226;2023-07-09T11:18:04;5.90;;;3.25;;
58017;SDS011;43810;50.860;19.226;2023-07-09T11:20:35;6.05;;;3.22;;
58017;SDS011;43810;50.860;19.226;2023-07-09T11:26:14;4.55;;;3.30;;
58017;SDS011;43810;50.860;19.226;2023-07-09T11:28:50;3.38;;;3.08;;
58017;SDS011;43810;50.860;19.226;2023-07-09T11:31:51;5.82;;;3.53;;
58017;SDS011;43810;50.860;19.226;2023-07-09T11:39:27;4.40;;;3.22;;
58017;SDS011;43810;50.860;19.226;2023-07-09T11:42:23;3.72;;;3.25;;
58017;SDS011;43810;50.860;19.226;2023-07-09T11:47:27;4.53;;;3.55;;
58017;SDS011;43810;50.860;19.226;2023-07-09T11:50:02;4.65;;;3.58;;
58017;SDS011;43810;50.860;19.226;2023-07-09T11:52:34;4.20;;;3.15;;
58017;SDS011;43810;50.860;19.226;2023-07-09T11:55:28;6.03;;;2.97;;
58017;SDS011;43810;50.860;19.226;2023-07-09T11:57:59;4.72;;;3.60;;
58017;SDS011;43810;50.860;19.226;2023-07-09T12:00:28;6.15;;;3.55;;
58017;SDS011;43810;50.860;19.226;2023-07-09T12:03:02;3.95;;;3.35;;
58017;SDS011;43810;50.860;19.226;2023-07-09T12:05:28;6.93;;;3.28;;
58017;SDS011;43810;50.860;19.226;2023-07-09T12:07:55;3.42;;;2.90;;
58017;SDS011;43810;50.860;19.226;2023-07-09T12:10:24;4.60;;;3.28;;
58017;SDS011;43810;50.860;19.226;2023-07-09T12:12:56;3.13;;;2.83;;
58017;SDS011;43810;50.860;19.226;2023-07-09T12:15:24;3.53;;;3.03;;
58017;SDS011;43810;50.860;19.226;2023-07-09T12:17:52;3.88;;;3.13;;
58017;SDS011;43810;50.860;19.226;2023-07-09T12:20:31;3.72;;;3.38;;
58017;SDS011;43810;50.860;19.226;2023-07-09T12:23:00;3.70;;;3.40;;
58017;SDS011;43810;50.860;19.226;2023-07-09T12:25:27;5.68;;;3.70;;
58017;SDS011;43810;50.860;19.226;2023-07-09T12:27:57;4.90;;;3.55;;
58017;SDS011;43810;50.860;19.226;2023-07-09T12:30:23;4.10;;;3.03;;
58017;SDS011;43810;50.860;19.226;2023-07-09T12:32:49;5.65;;;3.13;;
58017;SDS011;43810;50.860;19.226;2023-07-09T12:35:18;3.75;;;3.20;;
58017;SDS011;43810;50.860;19.226;2023-07-09T12:37:45;3.67;;;3.08;;
58017;SDS011;43810;50.860;19.226;2023-07-09T12:40:19;5.50;;;3.00;;
58017;SDS011;43810;50.860;19.226;2023-07-09T12:42:47;5.63;;;3.25;;
58017;SDS011;43810;50.860;19.226;2023-07-09T12:45:17;3.10;;;2.80;;
58017;SDS011;43810;50.860;19.226;2023-07-09T12:47:45;4.88;;;2.60;;
58017;SDS011;43810;50.860;19.226;2023-07-09T12:50:27;6.68;;;3.03;;
58017;SDS011;43810;50.860;19.226;2023-07-09T12:52:56;5.50;;;3.28;;
58017;SDS011;43810;50.860;19.226;2023-07-09T12:55:28;5.00;;;3.30;;
58017;SDS011;43810;50.860;19.226;2023-07-09T12:57:57;3.33;;;2.95;;
58017;SDS011;43810;50.860;19.226;2023-07-09T13:00:31;4.25;;;2.97;;
58017;SDS011;43810;50.860;19.226;2023-07-09T13:02:59;6.38;;;3.15;;
58017;SDS011;43810;50.860;19.226;2023-07-09T13:05:26;4.15;;;3.25;;
58017;SDS011;43810;50.860;19.226;2023-07-09T13:07:54;4.07;;;2.67;;
58017;SDS011;43810;50.860;19.226;2023-07-09T13:10:28;5.60;;;2.70;;
58017;SDS011;43810;50.860;19.226;2023-07-09T13:13:04;6.07;;;3.15;;
58017;SDS011;43810;50.860;19.226;2023-07-09T13:18:02;4.10;;;3.08;;
58017;SDS011;43810;50.860;19.226;2023-07-09T13:20:30;2.90;;;2.60;;
58017;SDS011;43810;50.860;19.226;2023-07-09T13:23:04;3.40;;;3.10;;
58017;SDS011;43810;50.860;19.226;2023-07-09T13:25:39;4.10;;;2.85;;
58017;SDS011;43810;50.860;19.226;2023-07-09T13:28:27;5.45;;;3.20;;
58017;SDS011;43810;50.860;19.226;2023-07-09T13:30:57;5.00;;;3.70;;
58017;SDS011;43810;50.860;19.226;2023-07-09T13:33:25;3.40;;;3.10;;
58017;SDS011;43810;50.860;19.226;2023-07-09T13:35:51;3.30;;;3.00;;
58017;SDS011;43810;50.860;19.226;2023-07-09T13:38:20;3.40;;;3.10;;
58017;SDS011;43810;50.860;19.226;2023-07-09T13:40:49;2.75;;;2.55;;
58017;SDS011;43810;50.860;19.226;2023-07-09T13:43:20;3.30;;;3.00;;
58017;SDS011;43810;50.860;19.226;2023-07-09T13:45:51;2.88;;;2.67;;
58017;SDS011;43810;50.860;19.226;2023-07-09T13:48:18;3.88;;;2.40;;
58017;SDS011;43810;50.860;19.226;2023-07-09T13:50:46;6.20;;;3.08;;
58017;SDS011;43810;50.860;19.226;2023-07-09T13:53:16;5.20;;;3.08;;
58017;SDS011;43810;50.860;19.226;2023-07-09T13:55:43;3.20;;;2.60;;
58017;SDS011;43810;50.860;19.226;2023-07-09T13:58:11;3.38;;;3.03;;
58017;SDS011;43810;50.860;19.226;2023-07-09T14:00:39;3.85;;;3.25;;
58017;SDS011;43810;50.860;19.226;2023-07-09T14:03:14;3.65;;;3.00;;
58017;SDS011;43810;50.860;19.226;2023-07-09T14:05:47;4.78;;;3.20;;
58017;SDS011;43810;50.860;19.226;2023-07-09T14:08:14;5.32;;;2.55;;
58017;SDS011;43810;50.860;19.226;2023-07-09T14:10:40;4.63;;;2.75;;
58017;SDS011;43810;50.860;19.226;2023-07-09T14:13:08;4.72;;;3.10;;
58017;SDS011;43810;50.860;19.226;2023-07-09T14:15:39;5.35;;;2.60;;
58017;SDS011;43810;50.860;19.226;2023-07-09T14:18:11;5.90;;;2.85;;
58017;SDS011;43810;50.860;19.226;2023-07-09T14:23:05;4.78;;;2.90;;
58017;SDS011;43810;50.860;19.226;2023-07-09T14:25:31;4.80;;;2.60;;
58017;SDS011;43810;50.860;19.226;2023-07-09T14:27:57;3.33;;;2.83;;
58017;SDS011;43810;50.860;19.226;2023-07-09T14:30:23;5.30;;;2.90;;
58017;SDS011;43810;50.860;19.226;2023-07-09T14:32:51;3.78;;;2.88;;
58017;SDS011;43810;50.860;19.226;2023-07-09T14:35:18;3.92;;;2.63;;
58017;SDS011;43810;50.860;19.226;2023-07-09T14:37:48;3.95;;;2.70;;
58017;SDS011;43810;50.860;19.226;2023-07-09T14:40:16;2.85;;;2.60;;
58017;SDS011;43810;50.860;19.226;2023-07-09T14:42:45;5.28;;;2.58;;
58017;SDS011;43810;50.860;19.226;2023-07-09T14:45:29;2.00;;;1.90;;
58017;SDS011;43810;50.860;19.226;2023-07-09T14:47:57;5.50;;;2.65;;
58017;SDS011;43810;50.860;19.226;2023-07-09T14:50:23;3.25;;;2.58;;
58017;SDS011;43810;50.860;19.226;2023-07-09T14:52:51;5.05;;;2.90;;
58017;SDS011;43810;50.860;19.226;2023-07-09T14:55:20;4.05;;;2.70;;
58017;SDS011;43810;50.860;19.226;2023-07-09T14:57:47;3.13;;;2.47;;
58017;SDS011;43810;50.860;19.226;2023-07-09T15:02:40;2.78;;;2.50;;
58017;SDS011;43810;50.860;19.226;2023-07-09T15:05:15;7.97;;;3.00;;
58017;SDS011;43810;50.860;19.226;2023-07-09T15:07:44;4.50;;;2.28;;
58017;SDS011;43810;50.860;19.226;2023-07-09T15:10:24;2.85;;;2.40;;
58017;SDS011;43810;50.860;19.226;2023-07-09T15:12:52;3.92;;;2.50;;
58017;SDS011;43810;50.860;19.226;2023-07-09T15:15:31;6.03;;;2.55;;
58017;SDS011;43810;50.860;19.226;2023-07-09T15:18:00;5.07;;;2.70;;
58017;SDS011;43810;50.860;19.226;2023-07-09T15:20:35;2.90;;;2.30;;
58017;SDS011;43810;50.860;19.226;2023-07-09T15:23:02;2.67;;;2.47;;
58017;SDS011;43810;50.860;19.226;2023-07-09T15:25:28;4.82;;;2.38;;